Time;durP1;ratioP1;P1;durP2;ratioP2;P2;SDS_P1;SDS_P2;PMS_P1;PMS_P2;Temp;Humidity;BMP_temperature;BMP_pressure;BME280_temperature;BME280_humidity;BME280_pressure;Samples;Min_cycle;Max_cycle;Signal;HPM_P1;HPM_P2
2023/05/06 00:02:28;;;;;;;;;;;10.30;99.90;;;;;;8279919;28;19913;-79
2023/05/06 00:06:28;;;;;;;;;;;10.30;99.90;;;;;;8291480;28;19914;-79
2023/05/06 00:10:29;;;;;;;;;;;10.20;99.90;;;;;;8300718;28;19940;-79
2023/05/06 00:14:29;;;;;;;;;;;10.10;99.90;;;;;;8295863;28;20000;-80
2023/05/06 00:18:30;;;;;;;;;;;10.40;99.90;;;;;;8300916;28;19968;-78
2023/05/06 00:22:30;;;;;;;;;;;10.30;99.90;;;;;;8290920;28;19999;-79
2023/05/06 00:26:31;;;;;;;;;;;10.00;99.90;;;;;;8293745;28;19909;-78
2023/05/06 00:30:31;;;;;;;;;;;9.90;99.90;;;;;;8298727;28;20405;-79
2023/05/06 00:34:32;;;;;;;;;;;9.80;99.90;;;;;;8296312;28;19991;-78
2023/05/06 00:38:32;;;;;;;;;;;9.70;99.90;;;;;;8292472;28;20378;-79
2023/05/06 00:42:33;;;;;;;;;;;9.60;99.90;;;;;;8283129;28;20154;-79
2023/05/06 00:46:33;;;;;;;;;;;9.50;99.90;;;;;;8296837;28;19909;-78
2023/05/06 00:50:34;;;;;;;;;;;9.60;99.90;;;;;;8323520;28;19913;-79
2023/05/06 00:54:35;;;;;;;;;;;9.70;99.90;;;;;;8305798;28;20419;-79
2023/05/06 00:58:36;;;;;;;;;;;9.90;99.90;;;;;;8285710;28;20020;-79
2023/05/06 01:02:36;;;;;;;;;;;10.00;99.90;;;;;;8299185;28;20007;-78
2023/05/06 01:06:36;;;;;;;;;;;9.90;99.90;;;;;;8290887;28;20590;-79
2023/05/06 01:10:51;;;;;;;;;;;10.10;99.90;;;;;;8291302;28;20370;-78
2023/05/06 01:15:07;;;;;;;;;;;9.80;99.90;;;;;;8303626;28;19914;-78
2023/05/06 01:19:16;;;;;;;;;;;9.70;99.90;;;;;;8285714;28;19910;-79
2023/05/06 01:23:17;;;;;;;;;;;9.60;99.90;;;;;;8281344;28;19914;-79
2023/05/06 01:27:17;;;;;;;;;;;9.50;99.90;;;;;;8307159;28;19909;-78
2023/05/06 01:31:25;;;;;;;;;;;9.40;99.90;;;;;;8280513;28;19918;-79
2023/05/06 01:35:30;;;;;;;;;;;9.30;99.90;;;;;;8280641;28;19920;-79
2023/05/06 01:39:31;;;;;;;;;;;9.40;99.90;;;;;;8318902;28;19909;-78
2023/05/06 01:43:35;;;;;;;;;;;9.70;99.90;;;;;;8280890;28;19996;-78
2023/05/06 01:47:36;;;;;;;;;;;9.40;99.90;;;;;;8284015;28;20003;-78
2023/05/06 01:51:37;;;;;;;;;;;9.30;99.90;;;;;;8297452;28;19921;-78
2023/05/06 01:55:37;;;;;;;;;;;9.10;99.90;;;;;;8308961;28;20004;-77
2023/05/06 01:59:38;;;;;;;;;;;9.10;99.90;;;;;;8285856;28;19924;-78
2023/05/06 02:03:38;;;;;;;;;;;9.00;99.90;;;;;;8309821;28;19910;-79
2023/05/06 02:07:39;;;;;;;;;;;8.80;99.90;;;;;;8302632;28;19919;-78
2023/05/06 02:11:39;;;;;;;;;;;8.70;99.90;;;;;;8287586;28;20347;-77
2023/05/06 02:15:39;;;;;;;;;;;8.70;99.90;;;;;;8309065;28;19953;-78
2023/05/06 02:19:40;;;;;;;;;;;8.70;99.90;;;;;;8281900;28;20299;-79
2023/05/06 02:23:40;;;;;;;;;;;8.60;99.90;;;;;;8317905;28;19989;-79
2023/05/06 02:27:41;;;;;;;;;;;8.60;99.90;;;;;;8271355;28;19953;-79
2023/05/06 02:31:41;;;;;;;;;;;8.60;99.90;;;;;;8307361;28;19917;-79
2023/05/06 02:35:42;;;;;;;;;;;8.50;99.90;;;;;;8295310;28;19921;-79
2023/05/06 02:39:42;;;;;;;;;;;8.50;99.90;;;;;;8296489;28;19921;-79
2023/05/06 02:43:43;;;;;;;;;;;8.50;99.90;;;;;;8291892;28;19986;-79
2023/05/06 02:47:43;;;;;;;;;;;8.60;99.90;;;;;;8293361;28;19944;-79
2023/05/06 02:51:44;;;;;;;;;;;8.50;99.90;;;;;;8294633;28;19917;-79
2023/05/06 02:55:44;;;;;;;;;;;8.50;99.90;;;;;;8276069;28;19914;-79
2023/05/06 02:59:45;;;;;;;;;;;8.50;99.90;;;;;;8292479;28;19924;-79
2023/05/06 03:03:45;;;;;;;;;;;8.40;99.90;;;;;;8295930;28;20650;-79
2023/05/06 03:07:45;;;;;;;;;;;8.50;99.90;;;;;;8290606;28;20447;-78
2023/05/06 03:11:46;;;;;;;;;;;8.60;99.90;;;;;;8290077;28;19922;-79
2023/05/06 03:15:50;;;;;;;;;;;8.80;99.90;;;;;;8280768;28;19914;-80
2023/05/06 03:19:51;;;;;;;;;;;8.80;99.90;;;;;;8305535;28;19947;-79
2023/05/06 03:23:51;;;;;;;;;;;8.40;99.90;;;;;;8293606;28;19910;-79
2023/05/06 03:27:52;;;;;;;;;;;8.50;99.90;;;;;;8301756;28;19975;-79
2023/05/06 03:31:54;;;;;;;;;;;8.20;99.90;;;;;;8311350;28;19957;-79
2023/05/06 03:35:54;;;;;;;;;;;8.20;99.90;;;;;;8295606;28;19913;-79
2023/05/06 03:39:55;;;;;;;;;;;8.10;99.90;;;;;;8287665;28;20015;-78
2023/05/06 03:43:55;;;;;;;;;;;8.10;99.90;;;;;;8295985;28;19913;-78
2023/05/06 03:47:56;;;;;;;;;;;8.20;99.90;;;;;;8302650;28;19967;-78
2023/05/06 03:51:56;;;;;;;;;;;8.10;99.90;;;;;;8298594;28;19963;-78
2023/05/06 03:55:57;;;;;;;;;;;8.10;99.90;;;;;;8315298;28;19914;-79
2023/05/06 03:59:57;;;;;;;;;;;8.00;99.90;;;;;;8291389;28;20405;-79
2023/05/06 04:03:58;;;;;;;;;;;8.20;99.90;;;;;;8287313;28;20368;-79
2023/05/06 04:07:58;;;;;;;;;;;8.20;99.90;;;;;;8296704;28;19909;-79
2023/05/06 04:11:59;;;;;;;;;;;8.10;99.90;;;;;;8294553;28;19913;-78
2023/05/06 04:15:59;;;;;;;;;;;8.30;99.90;;;;;;8300277;28;19986;-79
2023/05/06 04:20:05;;;;;;;;;;;8.30;99.90;;;;;;8304148;28;19917;-79
2023/05/06 04:24:06;;;;;;;;;;;8.40;99.90;;;;;;8293337;28;19918;-79
2023/05/06 04:28:10;;;;;;;;;;;8.60;99.90;;;;;;8293115;28;19940;-79
2023/05/06 04:32:11;;;;;;;;;;;8.80;99.90;;;;;;8297963;28;20450;-80
2023/05/06 04:36:12;;;;;;;;;;;8.60;99.90;;;;;;8289462;28;19985;-78
2023/05/06 04:40:12;;;;;;;;;;;8.80;99.90;;;;;;8286642;28;19913;-80
2023/05/06 04:44:12;;;;;;;;;;;8.80;99.90;;;;;;8299318;28;19916;-78
2023/05/06 04:48:23;;;;;;;;;;;8.80;99.90;;;;;;8291610;28;20386;-78
2023/05/06 04:52:23;;;;;;;;;;;9.50;99.90;;;;;;8311818;28;20370;-78
2023/05/06 04:56:24;;;;;;;;;;;9.70;99.90;;;;;;8298131;28;19948;-79
2023/05/06 05:00:26;;;;;;;;;;;10.80;99.90;;;;;;8299371;28;20051;-79
2023/05/06 05:04:26;;;;;;;;;;;10.30;99.90;;;;;;8312673;28;20016;-79
2023/05/06 05:08:27;;;;;;;;;;;10.20;99.90;;;;;;8279377;28;19913;-79
2023/05/06 05:12:27;;;;;;;;;;;10.50;99.90;;;;;;8288030;28;19953;-80
2023/05/06 05:16:28;;;;;;;;;;;10.50;99.90;;;;;;8277844;28;19967;-79
2023/05/06 05:20:28;;;;;;;;;;;10.50;99.90;;;;;;8279586;28;19914;-87
2023/05/06 05:24:28;;;;;;;;;;;10.90;99.90;;;;;;8289367;28;19932;-87
2023/05/06 05:28:29;;;;;;;;;;;11.10;99.90;;;;;;8303750;28;19921;-86
2023/05/06 05:32:29;;;;;;;;;;;12.90;99.90;;;;;;8309143;28;20421;-85
2023/05/06 05:36:30;;;;;;;;;;;12.00;99.90;;;;;;8304550;28;19913;-86
2023/05/06 05:40:30;;;;;;;;;;;11.50;99.90;;;;;;8315784;28;20011;-85
2023/05/06 05:44:31;;;;;;;;;;;11.70;99.90;;;;;;8307469;28;19981;-87
2023/05/06 05:48:31;;;;;;;;;;;12.20;99.90;;;;;;8311523;28;20000;-86
2023/05/06 05:52:32;;;;;;;;;;;11.90;99.90;;;;;;8319264;28;19913;-85
2023/05/06 05:56:32;;;;;;;;;;;14.30;99.90;;;;;;8325468;28;19917;-85
2023/05/06 06:00:33;;;;;;;;;;;12.90;99.90;;;;;;8332019;28;19941;-85
2023/05/06 06:04:33;;;;;;;;;;;12.50;99.90;;;;;;8325833;28;19917;-85
2023/05/06 06:08:34;;;;;;;;;;;13.70;99.90;;;;;;8314435;28;19917;-86
2023/05/06 06:12:38;;;;;;;;;;;14.10;99.90;;;;;;8325639;28;20005;-85
2023/05/06 06:16:38;;;;;;;;;;;12.90;99.90;;;;;;8309291;28;19913;-86
2023/05/06 06:20:39;;;;;;;;;;;13.90;99.90;;;;;;8321332;28;19918;-85
2023/05/06 06:24:42;;;;;;;;;;;15.30;99.90;;;;;;8298426;28;19991;-79
2023/05/06 06:28:43;;;;;;;;;;;16.10;99.90;;;;;;8272473;28;19953;-79
2023/05/06 06:32:48;;;;;;;;;;;14.80;99.90;;;;;;8291435;28;19929;-80
2023/05/06 06:36:48;;;;;;;;;;;15.20;99.90;;;;;;8282416;28;19920;-80
2023/05/06 06:40:49;;;;;;;;;;;15.40;99.90;;;;;;8312089;28;19909;-82
2023/05/06 06:44:49;;;;;;;;;;;16.60;99.90;;;;;;8306559;28;19913;-82
2023/05/06 06:48:49;;;;;;;;;;;17.20;99.90;;;;;;8290520;28;19937;-82
2023/05/06 06:52:50;;;;;;;;;;;17.30;99.90;;;;;;8282838;28;20247;-82
2023/05/06 06:56:57;;;;;;;;;;;17.20;99.90;;;;;;8281250;28;20370;-82
2023/05/06 07:00:57;;;;;;;;;;;17.40;99.90;;;;;;8302442;28;20559;-81
2023/05/06 07:04:57;;;;;;;;;;;17.80;99.90;;;;;;8291762;28;19913;-82
2023/05/06 07:08:58;;;;;;;;;;;18.00;99.90;;;;;;8310881;28;19921;-81
2023/05/06 07:12:58;;;;;;;;;;;17.80;99.90;;;;;;8280411;28;19917;-82
2023/05/06 07:17:02;;;;;;;;;;;17.60;99.90;;;;;;8291797;28;19913;-81
2023/05/06 07:21:02;;;;;;;;;;;17.40;99.90;;;;;;8305177;28;19944;-81
2023/05/06 07:25:03;;;;;;;;;;;17.60;99.90;;;;;;8298102;28;19920;-80
2023/05/06 07:29:03;;;;;;;;;;;18.10;99.90;;;;;;8304238;28;19949;-80
2023/05/06 07:33:04;;;;;;;;;;;18.40;99.90;;;;;;8282792;28;19914;-80
2023/05/06 07:37:06;;;;;;;;;;;18.30;99.90;;;;;;8298572;28;19913;-82
2023/05/06 07:41:07;;;;;;;;;;;18.40;99.90;;;;;;8288268;28;19917;-79
2023/05/06 07:45:07;;;;;;;;;;;18.60;99.90;;;;;;8288978;28;20593;-82
2023/05/06 07:49:08;;;;;;;;;;;18.60;99.90;;;;;;8305826;28;19921;-82
2023/05/06 07:53:08;;;;;;;;;;;19.00;99.90;;;;;;8286927;28;19914;-81
2023/05/06 07:57:09;;;;;;;;;;;18.70;99.90;;;;;;8310125;28;19920;-82
2023/05/06 08:01:09;;;;;;;;;;;18.50;99.90;;;;;;8283533;28;19924;-80
2023/05/06 08:05:10;;;;;;;;;;;18.20;99.90;;;;;;8281100;28;19918;-80
2023/05/06 08:09:11;;;;;;;;;;;17.70;99.90;;;;;;8308855;28;19928;-82
2023/05/06 08:13:11;;;;;;;;;;;17.40;99.90;;;;;;8295964;28;19940;-82
2023/05/06 08:17:12;;;;;;;;;;;17.60;99.90;;;;;;8302162;28;19920;-82
2023/05/06 08:21:12;;;;;;;;;;;18.10;99.90;;;;;;8299470;28;19910;-82
2023/05/06 08:25:13;;;;;;;;;;;18.60;99.90;;;;;;8285325;28;19948;-82
2023/05/06 08:29:13;;;;;;;;;;;19.00;99.90;;;;;;8278490;28;20296;-80
2023/05/06 08:33:13;;;;;;;;;;;19.50;99.90;;;;;;8284548;28;19917;-81
2023/05/06 08:37:14;;;;;;;;;;;19.40;99.90;;;;;;8299828;28;19936;-81
2023/05/06 08:41:16;;;;;;;;;;;19.20;99.90;;;;;;8285365;28;19921;-81
2023/05/06 08:45:17;;;;;;;;;;;19.60;99.90;;;;;;8288049;28;20271;-80
2023/05/06 08:49:17;;;;;;;;;;;19.70;99.90;;;;;;8285377;28;20000;-80
2023/05/06 08:53:18;;;;;;;;;;;19.40;99.90;;;;;;8290260;28;19944;-80
2023/05/06 08:57:19;;;;;;;;;;;19.50;99.90;;;;;;8281422;28;19921;-81
2023/05/06 09:01:20;;;;;;;;;;;19.60;99.90;;;;;;8288629;28;19917;-80
2023/05/06 09:05:21;;;;;;;;;;;19.90;99.90;;;;;;8294185;28;19920;-81
2023/05/06 09:09:21;;;;;;;;;;;20.00;99.90;;;;;;8304620;28;19918;-80
2023/05/06 09:13:22;;;;;;;;;;;20.50;99.90;;;;;;8281788;28;20460;-78
2023/05/06 09:17:23;;;;;;;;;;;21.10;99.90;;;;;;8285533;28;19909;-81
2023/05/06 09:21:50;;;;;;;;;;;21.10;99.90;;;;;;8301654;28;20004;-80
2023/05/06 09:25:50;;;;;;;;;;;21.10;99.90;;;;;;8298224;28;19920;-82
2023/05/06 09:30:01;;;;;;;;;;;20.50;99.90;;;;;;8291501;28;19917;-82
2023/05/06 09:34:02;;;;;;;;;;;20.90;99.90;;;;;;8316295;28;19963;-80
2023/05/06 09:38:02;;;;;;;;;;;21.90;99.90;;;;;;8285829;28;20008;-81
2023/05/06 09:42:03;;;;;;;;;;;21.90;99.90;;;;;;8308074;28;19913;-79
2023/05/06 09:46:05;;;;;;;;;;;21.10;99.90;;;;;;8292157;28;19909;-81
2023/05/06 09:50:07;;;;;;;;;;;20.50;99.90;;;;;;8284233;28;19920;-80
2023/05/06 09:54:08;;;;;;;;;;;19.90;99.90;;;;;;8281411;28;19917;-80
2023/05/06 09:58:09;;;;;;;;;;;20.20;99.90;;;;;;8276512;28;19921;-80
2023/05/06 10:02:13;;;;;;;;;;;19.70;99.90;;;;;;8307006;28;19921;-80
2023/05/06 10:06:14;;;;;;;;;;;20.10;99.90;;;;;;8294451;28;19920;-80
2023/05/06 10:10:15;;;;;;;;;;;20.20;99.90;;;;;;8303491;28;19924;-81
2023/05/06 10:14:16;;;;;;;;;;;21.00;99.90;;;;;;8317599;28;20432;-81
2023/05/06 10:18:17;;;;;;;;;;;21.50;99.90;;;;;;8293919;28;19925;-81
2023/05/06 10:22:27;;;;;;;;;;;21.20;99.90;;;;;;8283980;28;20003;-81
2023/05/06 10:26:28;;;;;;;;;;;22.20;99.90;;;;;;8310134;28;19913;-81
2023/05/06 10:30:29;;;;;;;;;;;23.30;99.90;;;;;;8299411;28;19917;-82
2023/05/06 10:34:35;;;;;;;;;;;24.20;99.90;;;;;;8283105;28;19921;-81
2023/05/06 10:38:40;;;;;;;;;;;24.50;99.90;;;;;;8293788;28;19972;-82
2023/05/06 10:42:41;;;;;;;;;;;23.00;99.90;;;;;;8295608;28;20189;-82
2023/05/06 10:47:11;;;;;;;;;;;22.10;99.90;;;;;;8289580;28;19921;-80
2023/05/06 10:51:14;;;;;;;;;;;22.90;99.90;;;;;;8272496;28;19933;-81
2023/05/06 10:55:34;;;;;;;;;;;25.10;99.90;;;;;;8308692;28;19955;-79
2023/05/06 10:59:35;;;;;;;;;;;26.50;99.90;;;;;;8276866;28;20303;-81
2023/05/06 11:03:35;;;;;;;;;;;25.90;99.90;;;;;;8290986;28;19924;-81
2023/05/06 11:07:36;;;;;;;;;;;24.60;99.90;;;;;;8293626;28;20464;-79
2023/05/06 11:11:45;;;;;;;;;;;23.60;99.90;;;;;;8299142;28;19925;-80
2023/05/06 11:15:49;;;;;;;;;;;22.90;99.90;;;;;;8296673;28;20438;-78
2023/05/06 11:20:09;;;;;;;;;;;23.10;99.90;;;;;;8296454;28;19913;-80
2023/05/06 11:24:11;;;;;;;;;;;23.40;99.90;;;;;;8313490;28;19921;-80
2023/05/06 11:28:12;;;;;;;;;;;23.80;99.90;;;;;;8315381;28;20720;-80
2023/05/06 11:32:20;;;;;;;;;;;24.90;99.90;;;;;;8304567;28;19917;-80
2023/05/06 11:36:21;;;;;;;;;;;25.00;99.90;;;;;;8296440;28;19916;-79
2023/05/06 11:40:22;;;;;;;;;;;25.50;99.90;;;;;;8323198;28;19913;-80
2023/05/06 11:44:23;;;;;;;;;;;26.20;99.90;;;;;;8327150;28;19909;-79
2023/05/06 11:48:23;;;;;;;;;;;26.90;99.90;;;;;;8312627;28;20320;-79
2023/05/06 11:52:24;;;;;;;;;;;28.10;95.80;;;;;;8299561;28;19928;-79
2023/05/06 11:56:24;;;;;;;;;;;28.40;94.80;;;;;;8290426;28;19940;-81
2023/05/06 12:00:25;;;;;;;;;;;28.90;94.10;;;;;;8295819;28;19943;-80
2023/05/06 12:04:26;;;;;;;;;;;28.40;93.10;;;;;;8295396;28;19918;-81
2023/05/06 12:08:31;;;;;;;;;;;28.60;93.30;;;;;;8309929;28;19918;-80
2023/05/06 12:12:32;;;;;;;;;;;27.10;91.80;;;;;;8300092;28;19935;-79
2023/05/06 12:16:34;;;;;;;;;;;25.70;93.70;;;;;;8327895;28;19909;-81
2023/05/06 12:20:34;;;;;;;;;;;24.10;98.60;;;;;;8292602;28;19932;-79
2023/05/06 12:24:34;;;;;;;;;;;23.30;99.30;;;;;;8297957;28;20015;-80
2023/05/06 12:28:35;;;;;;;;;;;24.50;98.90;;;;;;8297550;28;19915;-80
2023/05/06 12:32:55;;;;;;;;;;;25.00;96.00;;;;;;8298522;28;19929;-80
2023/05/06 12:36:55;;;;;;;;;;;25.80;95.30;;;;;;8291224;28;19913;-79
2023/05/06 12:40:56;;;;;;;;;;;25.60;91.90;;;;;;8298169;28;20257;-81
2023/05/06 12:44:56;;;;;;;;;;;25.00;96.50;;;;;;8307946;28;19925;-79
2023/05/06 12:49:01;;;;;;;;;;;24.90;95.40;;;;;;8301684;28;20414;-79
2023/05/06 12:53:02;;;;;;;;;;;24.70;93.60;;;;;;8306594;28;19937;-80
2023/05/06 12:57:02;;;;;;;;;;;23.80;95.40;;;;;;8317779;28;20370;-80
2023/05/06 13:01:03;;;;;;;;;;;24.20;97.40;;;;;;8298933;28;19925;-80
2023/05/06 13:05:04;;;;;;;;;;;25.90;90.60;;;;;;8319821;28;19981;-79
2023/05/06 13:09:05;;;;;;;;;;;28.20;87.30;;;;;;8316749;28;19932;-78
2023/05/06 13:13:06;;;;;;;;;;;29.60;87.30;;;;;;8314708;28;20004;-79
2023/05/06 13:17:06;;;;;;;;;;;30.90;82.10;;;;;;8291373;28;20578;-81
2023/05/06 13:21:07;;;;;;;;;;;31.90;78.10;;;;;;8298939;28;19917;-78
2023/05/06 13:25:08;;;;;;;;;;;31.50;69.10;;;;;;8300681;28;19917;-80
2023/05/06 13:29:08;;;;;;;;;;;30.20;76.10;;;;;;8311194;28;19913;-79
2023/05/06 13:33:09;;;;;;;;;;;29.50;77.70;;;;;;8296175;28;20313;-79
2023/05/06 13:37:09;;;;;;;;;;;28.20;76.00;;;;;;8285227;28;19909;-81
2023/05/06 13:41:10;;;;;;;;;;;26.40;83.20;;;;;;8311323;28;19918;-79
2023/05/06 13:45:10;;;;;;;;;;;27.90;78.20;;;;;;8313933;28;19925;-82
2023/05/06 13:49:11;;;;;;;;;;;29.80;72.60;;;;;;8296947;28;20033;-80
2023/05/06 13:53:12;;;;;;;;;;;28.80;69.80;;;;;;8320468;28;19925;-79
2023/05/06 13:57:12;;;;;;;;;;;30.40;67.80;;;;;;8288859;28;19910;-79
2023/05/06 14:01:13;;;;;;;;;;;31.00;67.30;;;;;;8314303;28;19917;-80
2023/05/06 14:05:14;;;;;;;;;;;30.60;64.20;;;;;;8301581;28;20340;-80
2023/05/06 14:09:14;;;;;;;;;;;28.60;69.20;;;;;;8314284;28;19913;-79
2023/05/06 14:13:15;;;;;;;;;;;27.20;70.50;;;;;;8292368;28;19972;-81
2023/05/06 14:17:16;;;;;;;;;;;26.30;77.70;;;;;;8301199;28;19909;-81
2023/05/06 14:21:16;;;;;;;;;;;27.00;75.80;;;;;;8310098;28;19921;-79
2023/05/06 14:25:17;;;;;;;;;;;28.50;75.40;;;;;;8299423;28;20017;-80
2023/05/06 14:29:17;;;;;;;;;;;28.70;80.20;;;;;;8297437;28;19916;-81
2023/05/06 14:33:18;;;;;;;;;;;29.80;73.90;;;;;;8301521;28;19913;-78
2023/05/06 14:37:18;;;;;;;;;;;28.50;75.30;;;;;;8299507;28;19944;-80
2023/05/06 14:41:19;;;;;;;;;;;29.40;73.00;;;;;;8293527;28;20011;-80
2023/05/06 14:45:20;;;;;;;;;;;28.40;71.10;;;;;;8297340;28;19914;-81
2023/05/06 14:49:20;;;;;;;;;;;28.20;73.00;;;;;;8321680;28;19920;-80
2023/05/06 14:53:20;;;;;;;;;;;29.20;71.10;;;;;;8313626;28;19928;-80
2023/05/06 14:57:22;;;;;;;;;;;30.00;66.80;;;;;;8298281;28;20425;-80
2023/05/06 15:01:23;;;;;;;;;;;30.20;60.90;;;;;;8297019;28;19948;-80
2023/05/06 15:05:23;;;;;;;;;;;30.50;67.30;;;;;;8324343;28;19909;-81
2023/05/06 15:09:25;;;;;;;;;;;31.10;61.50;;;;;;8302336;28;19916;-80
2023/05/06 15:13:25;;;;;;;;;;;30.20;64.50;;;;;;8304989;28;19927;-80
2023/05/06 15:17:25;;;;;;;;;;;30.20;64.50;;;;;;8298678;28;20055;-79
2023/05/06 15:21:26;;;;;;;;;;;29.30;71.50;;;;;;8319997;28;20516;-80
2023/05/06 15:25:26;;;;;;;;;;;27.60;72.60;;;;;;8297502;28;20352;-81
2023/05/06 15:29:27;;;;;;;;;;;27.90;70.80;;;;;;8324629;28;20117;-80
2023/05/06 15:33:27;;;;;;;;;;;26.60;76.50;;;;;;8316276;28;19920;-81
2023/05/06 15:37:28;;;;;;;;;;;27.10;75.30;;;;;;8300502;28;19970;-79
2023/05/06 15:41:32;;;;;;;;;;;27.10;78.70;;;;;;8294828;28;19920;-79
2023/05/06 15:45:34;;;;;;;;;;;24.70;81.30;;;;;;8304354;28;19920;-80
2023/05/06 15:49:34;;;;;;;;;;;23.30;84.80;;;;;;8298785;28;20197;-80
2023/05/06 15:53:37;;;;;;;;;;;23.00;83.20;;;;;;8295868;28;19917;-80
2023/05/06 15:57:38;;;;;;;;;;;22.70;90.70;;;;;;8316010;28;19913;-80
2023/05/06 16:01:38;;;;;;;;;;;22.30;91.90;;;;;;8305635;28;19923;-81
2023/05/06 16:05:39;;;;;;;;;;;21.90;91.00;;;;;;8295683;28;19939;-80
2023/05/06 16:09:39;;;;;;;;;;;21.90;91.50;;;;;;8289770;28;19919;-82
2023/05/06 16:13:40;;;;;;;;;;;21.50;92.30;;;;;;8276374;28;19914;-81
2023/05/06 16:17:41;;;;;;;;;;;21.00;93.60;;;;;;8301694;28;19932;-80
2023/05/06 16:21:41;;;;;;;;;;;20.80;96.20;;;;;;8280412;28;19964;-78
2023/05/06 16:25:42;;;;;;;;;;;20.20;98.70;;;;;;8280452;28;19921;-80
2023/05/06 16:29:42;;;;;;;;;;;19.90;98.30;;;;;;8292478;28;19922;-80
2023/05/06 16:33:43;;;;;;;;;;;19.90;99.20;;;;;;8273802;28;20047;-79
2023/05/06 16:37:43;;;;;;;;;;;19.90;99.90;;;;;;8295335;28;19936;-81
2023/05/06 16:41:45;;;;;;;;;;;20.10;99.90;;;;;;8294452;28;19925;-80
2023/05/06 16:45:45;;;;;;;;;;;20.20;99.90;;;;;;8280332;28;19922;-80
2023/05/06 16:49:46;;;;;;;;;;;20.30;99.90;;;;;;8283612;28;19913;-79
2023/05/06 16:53:46;;;;;;;;;;;20.30;99.90;;;;;;8280179;28;19972;-81
2023/05/06 16:57:47;;;;;;;;;;;20.20;99.90;;;;;;8293352;28;19917;-80
2023/05/06 17:01:48;;;;;;;;;;;20.10;99.90;;;;;;8273618;28;19925;-80
2023/05/06 17:05:48;;;;;;;;;;;19.80;99.90;;;;;;8275777;28;19917;-80
2023/05/06 17:09:49;;;;;;;;;;;19.80;99.90;;;;;;8292898;28;20004;-81
2023/05/06 17:13:49;;;;;;;;;;;19.80;99.90;;;;;;8282058;28;19940;-81
2023/05/06 17:17:50;;;;;;;;;;;19.60;99.90;;;;;;8279459;28;19921;-79
2023/05/06 17:21:50;;;;;;;;;;;19.40;99.90;;;;;;8287828;28;19932;-81
2023/05/06 17:25:51;;;;;;;;;;;19.20;99.90;;;;;;8284727;28;20568;-80
2023/05/06 17:29:51;;;;;;;;;;;18.90;99.90;;;;;;8308790;28;20742;-80
2023/05/06 17:33:52;;;;;;;;;;;18.60;99.90;;;;;;8285082;28;19967;-80
2023/05/06 17:37:53;;;;;;;;;;;18.40;99.90;;;;;;8299433;28;19913;-79
2023/05/06 17:41:54;;;;;;;;;;;18.20;99.90;;;;;;8280243;28;19927;-81
2023/05/06 17:45:54;;;;;;;;;;;17.90;99.90;;;;;;8275736;28;20406;-80
2023/05/06 17:49:55;;;;;;;;;;;17.80;99.90;;;;;;8294293;28;20550;-80
2023/05/06 17:53:56;;;;;;;;;;;17.60;99.90;;;;;;8274299;28;19922;-81
2023/05/06 17:57:57;;;;;;;;;;;17.40;99.90;;;;;;8296153;28;20337;-80
2023/05/06 18:01:57;;;;;;;;;;;17.00;99.90;;;;;;8295894;28;19928;-79
2023/05/06 18:05:58;;;;;;;;;;;16.60;99.90;;;;;;8296488;28;20402;-79
2023/05/06 18:09:59;;;;;;;;;;;16.60;99.90;;;;;;8303346;28;20367;-79
2023/05/06 18:14:00;;;;;;;;;;;16.50;99.90;;;;;;8297005;28;19913;-79
2023/05/06 18:18:00;;;;;;;;;;;16.40;99.90;;;;;;8286663;28;20014;-79
2023/05/06 18:22:01;;;;;;;;;;;16.20;99.90;;;;;;8285803;28;19940;-79
2023/05/06 18:26:04;;;;;;;;;;;15.90;99.90;;;;;;8287857;28;19918;-81
2023/05/06 18:30:05;;;;;;;;;;;15.50;99.90;;;;;;8299884;28;20367;-79
2023/05/06 18:34:05;;;;;;;;;;;15.20;99.90;;;;;;8295326;28;19940;-80
2023/05/06 18:38:06;;;;;;;;;;;15.00;99.90;;;;;;8307673;28;20349;-79
2023/05/06 18:42:07;;;;;;;;;;;15.00;99.90;;;;;;8312399;28;19925;-80
2023/05/06 18:46:10;;;;;;;;;;;14.90;99.90;;;;;;8301884;28;21503;-80
2023/05/06 18:50:10;;;;;;;;;;;14.80;99.90;;;;;;8283836;28;19921;-79
2023/05/06 18:54:11;;;;;;;;;;;14.60;99.90;;;;;;8321982;28;19917;-79
2023/05/06 18:58:12;;;;;;;;;;;14.40;99.90;;;;;;8296265;28;19987;-79
2023/05/06 19:02:12;;;;;;;;;;;14.50;99.90;;;;;;8293167;28;20523;-79
2023/05/06 19:06:13;;;;;;;;;;;14.40;99.90;;;;;;8287427;28;19946;-80
2023/05/06 19:10:13;;;;;;;;;;;14.20;99.90;;;;;;8305189;28;19976;-80
2023/05/06 19:14:14;;;;;;;;;;;14.10;99.90;;;;;;8290452;28;20439;-81
2023/05/06 19:18:14;;;;;;;;;;;13.90;99.90;;;;;;8291430;28;19909;-81
2023/05/06 19:22:15;;;;;;;;;;;13.70;99.90;;;;;;8283820;28;19913;-80
2023/05/06 19:26:15;;;;;;;;;;;13.50;99.90;;;;;;8313496;28;20791;-79
2023/05/06 19:30:16;;;;;;;;;;;13.50;99.90;;;;;;8301442;28;20401;-79
2023/05/06 19:34:16;;;;;;;;;;;13.70;99.90;;;;;;8296020;28;19921;-80
2023/05/06 19:38:18;;;;;;;;;;;13.90;99.90;;;;;;8301651;28;20561;-80
2023/05/06 19:42:18;;;;;;;;;;;14.00;99.90;;;;;;8308850;28;19924;-79
2023/05/06 19:46:19;;;;;;;;;;;13.90;99.90;;;;;;8309636;28;19916;-80
2023/05/06 19:50:20;;;;;;;;;;;14.10;99.90;;;;;;8302471;28;19913;-79
2023/05/06 19:54:21;;;;;;;;;;;13.90;99.90;;;;;;8296889;28;19919;-81
2023/05/06 19:58:21;;;;;;;;;;;13.70;99.90;;;;;;8296015;28;19917;-80
2023/05/06 20:02:22;;;;;;;;;;;13.50;99.90;;;;;;8308484;28;20016;-80
2023/05/06 20:06:22;;;;;;;;;;;13.60;99.90;;;;;;8298493;28;19910;-80
2023/05/06 20:10:23;;;;;;;;;;;13.40;99.90;;;;;;8317994;28;19921;-79
2023/05/06 20:14:23;;;;;;;;;;;13.20;99.90;;;;;;8303157;28;19916;-80
2023/05/06 20:18:24;;;;;;;;;;;13.10;99.90;;;;;;8297146;28;19943;-81
2023/05/06 20:22:24;;;;;;;;;;;13.00;99.90;;;;;;8298389;28;19924;-80
2023/05/06 20:26:25;;;;;;;;;;;13.00;99.90;;;;;;8301018;28;20344;-80
2023/05/06 20:30:25;;;;;;;;;;;12.90;99.90;;;;;;8302315;28;19913;-79
2023/05/06 20:34:26;;;;;;;;;;;12.70;99.90;;;;;;8298639;28;19919;-80
2023/05/06 20:38:29;;;;;;;;;;;12.70;99.90;;;;;;8298261;28;19913;-80
2023/05/06 20:42:30;;;;;;;;;;;12.40;99.90;;;;;;8297006;28;20376;-80
2023/05/06 20:46:31;;;;;;;;;;;12.30;99.90;;;;;;8293003;28;19910;-79
2023/05/06 20:50:32;;;;;;;;;;;12.30;99.90;;;;;;8298285;28;19909;-80
2023/05/06 20:54:33;;;;;;;;;;;12.20;99.90;;;;;;8291592;28;19909;-79
2023/05/06 20:58:33;;;;;;;;;;;12.10;99.90;;;;;;8301326;28;19917;-79
2023/05/06 21:02:34;;;;;;;;;;;12.00;99.90;;;;;;8325164;28;19936;-80
2023/05/06 21:06:34;;;;;;;;;;;12.00;99.90;;;;;;8314253;28;20440;-81
2023/05/06 21:10:35;;;;;;;;;;;12.00;99.90;;;;;;8292717;28;19914;-80
2023/05/06 21:14:36;;;;;;;;;;;11.80;99.90;;;;;;8295472;28;19913;-80
2023/05/06 21:18:36;;;;;;;;;;;11.60;99.90;;;;;;8303495;28;19925;-79
2023/05/06 21:22:36;;;;;;;;;;;11.60;99.90;;;;;;8287070;28;19924;-79
2023/05/06 21:26:37;;;;;;;;;;;11.50;99.90;;;;;;8301600;28;19917;-80
2023/05/06 21:30:38;;;;;;;;;;;11.30;99.90;;;;;;8300827;28;19936;-81
2023/05/06 21:34:39;;;;;;;;;;;11.30;99.90;;;;;;8301774;28;19916;-79
2023/05/06 21:38:39;;;;;;;;;;;11.10;99.90;;;;;;8308628;28;19913;-81
2023/05/06 21:42:40;;;;;;;;;;;11.10;99.90;;;;;;8293345;28;19917;-80
2023/05/06 21:46:40;;;;;;;;;;;11.00;99.90;;;;;;8309795;28;20007;-81
2023/05/06 21:50:40;;;;;;;;;;;11.00;99.90;;;;;;8315630;28;20321;-79
2023/05/06 21:54:44;;;;;;;;;;;11.00;99.90;;;;;;8296340;28;20463;-80
2023/05/06 21:58:44;;;;;;;;;;;11.00;99.90;;;;;;8300374;28;19971;-80
2023/05/06 22:02:45;;;;;;;;;;;10.90;99.90;;;;;;8291054;23;19929;-80
2023/05/06 22:06:45;;;;;;;;;;;10.90;99.90;;;;;;8270123;28;19929;-79
2023/05/06 22:10:46;;;;;;;;;;;10.80;99.90;;;;;;8274589;28;19918;-79
2023/05/06 22:14:46;;;;;;;;;;;10.70;99.90;;;;;;8270995;28;19918;-79
2023/05/06 22:18:46;;;;;;;;;;;10.80;99.90;;;;;;8277054;28;19929;-80
2023/05/06 22:22:49;;;;;;;;;;;10.70;99.90;;;;;;8264001;28;19926;-79
2023/05/06 22:26:49;;;;;;;;;;;10.80;99.90;;;;;;8265001;28;19910;-79
2023/05/06 22:30:50;;;;;;;;;;;10.70;99.90;;;;;;8275696;28;20345;-79
2023/05/06 22:34:50;;;;;;;;;;;10.70;99.90;;;;;;8266195;28;19913;-80
2023/05/06 22:38:51;;;;;;;;;;;10.80;99.90;;;;;;8274345;28;19914;-80
2023/05/06 22:42:52;;;;;;;;;;;10.70;99.90;;;;;;8264620;28;19917;-79
2023/05/06 22:46:53;;;;;;;;;;;10.60;99.90;;;;;;8275180;28;19921;-79
2023/05/06 22:50:55;;;;;;;;;;;10.70;99.90;;;;;;8272218;28;20414;-81
2023/05/06 22:54:55;;;;;;;;;;;10.70;99.90;;;;;;8278913;28;19910;-80
2023/05/06 22:58:56;;;;;;;;;;;10.70;99.90;;;;;;8273775;28;19918;-79
2023/05/06 23:02:56;;;;;;;;;;;10.60;99.90;;;;;;8270259;28;20375;-79
2023/05/06 23:06:57;;;;;;;;;;;10.60;99.90;;;;;;8276026;28;19914;-79
2023/05/06 23:10:57;;;;;;;;;;;10.50;99.90;;;;;;8276348;28;19916;-79
2023/05/06 23:14:58;;;;;;;;;;;10.40;99.90;;;;;;8288271;28;20001;-80
2023/05/06 23:18:59;;;;;;;;;;;10.60;99.90;;;;;;8277959;28;19914;-79
2023/05/06 23:22:59;;;;;;;;;;;10.60;99.90;;;;;;8280822;28;20378;-79
2023/05/06 23:27:00;;;;;;;;;;;10.60;99.90;;;;;;8266956;28;19972;-79